Terminal Aerodrome Forecast
Issued by NWS

Home | Current Version | Previous Version | Text Only | Print | Product List | Glossary On
Versions: 1 2 3 4 5 6 7 8 9 10 11 12 13
349
FTPA31 PHFO 202343
TAFHNY
TAF
PHNY 202343Z 2100/2124 27011KT P6SM BKN018
     FM210400 VRB05KT P6SM SCT030
     FM212100 25011KT P6SM BKN025=

USA.gov is the U.S. government's official web portal to all federal, state and local government web resources and services.